Gold Country Challenge - Race 4 - 334 Mile Final

Station: Deeth Nevada - A Race

Distance: 334.008 Miles    

Release: 07-Nov-2017 07:00

Weather Release: 80% Clear/20% Clouds    Arrival: Mostly Sunny

Wind at Release: Light East     Wind at Arrival: Light SW

Temp at Release: 20°    Temp at Arrival: 58°

Lofts: 77

Birds: 205

Clocked: 196

Points Updated. Prize Totals include Overall Ace Pigeon & Nominated Point Birds
Drops Pos Breeder Pigeon Name Color Sex Ent Arrival Speed To Win Eligible PointsChamp
3647.50 1 Richard Callahan - MO 1672-AU17-AA BC H 1 13:19:23.00 1549.499 00:00:00 Yes 385
5522.50 2 Sierra Ranch - CA 0773-AU17-SR BB H 1 13:19:24.00 1549.431 00:00:01 Yes 384
3647.50 3 Flying W - CA 0526-AU17-AUB Iron clad ghost GRIZ H 1 13:19:42.50 1548.173 00:00:19 Yes 383
3647.50 4 A P C Loft - TX 17197-AU17-APC BB H 1 13:19:44.00 1548.071 00:00:21 Yes 382
- 1-DROP 13:19:43.00 1547.071
507.82 5 D J's Loft Of Ca - CA 6008-AU17-FSC BB H 1 13:20:22.30 1545.473 00:00:59 Yes 352
507.82 6 Perfection Loft & Torres Loft - KS 3732-AU17-AA BB H 1 13:20:24.30 1545.337 00:01:01 Yes 351
507.82 7 Refried Dreams - AZ 0083-AU17-RFRY BB H 1 13:20:26.10 1545.216 00:01:03 Yes 350
507.82 8 D J's Loft Of Ca - CA 6007-AU17-FSC BB H 2 13:20:27.90 1545.094 00:01:05 Yes 349
507.82 9 Huan Qiu Zhang - NC 1807-IF17-JNC PIED H 1 13:20:29.30 1544.999 00:01:06 Yes 348
507.82 10 Cloux Loft - CO 8132-AU17-FH BB H 1 13:20:30.10 1544.945 00:01:07 Yes 347
507.82 11 Perfection Loft & Torres Loft - KS 3719-AU17-AA BB H 2 13:20:32.70 1544.769 00:01:10 Yes 346
507.82 12 John Partridge - CA 0528-AU17-PASO Texas Miracle MLY H 1 13:20:37.60 1544.437 00:01:15 Yes 345
507.82 13 Nanez Family Lofts - WI 4296-AU17-NFL BBWF H 1 13:20:38.00 1544.410 00:01:15 Yes 344
507.82 14 Tou Loft - TN 0022-AU17-TOU BBWS H 1 13:20:41.10 1544.201 00:01:18 Yes 343
507.82 15 Nanez Family Lofts - WI 4182-AU17-NFL BB H 2 13:20:51.40 1543.505 00:01:28 Yes 342
507.82 16 Haack Loft - CA 2758-AU17-JEDD BB H 1 13:21:00.20 1542.911 00:01:37 Yes 341
507.82 17 Sierra Ranch - CA 1790-AU17-SR B H 2 13:21:07.40 1542.425 00:01:44 Yes 340
507.82 18 P N W Challenge - ID 7015-AU17-PNWC "487-63" BB H 1 13:21:10.20 1542.236 00:01:47 Yes 339
507.82 19 Skychargers - CA 0011-AU17-CORO BC H 1 13:21:27.10 1541.097 00:02:04 Yes 338
507.82 20 Jactions Loft - CA 15969-AU17-AA BB H 1 13:21:34.50 1540.599 00:02:12 Yes 337
- 2-DROP 13:21:33.00 1539.599
21 Flyhome Loft - CA 26331-AU17-ARPU BC H 1 13:22:10.10 1538.207 00:02:47 Yes 317
22 Duane Gragg - CA 0778-AU17-KEY BB H 1 13:22:16.30 1537.791 00:02:53 Yes 316
23 Fleet Washington - DC 1728-AU17-FLET BC H 1 13:22:17.60 1537.704 00:02:55 Yes 315
24 V Lin - IA 0376-AU17-VLIN BB H 1 13:22:17.70 1537.698 00:02:55 Yes 314
25 Tom O`Brien - CA 70809-AU17-SOC BB H 1 13:22:21.10 1537.470 00:02:58 Yes 313
1380 26 Silicon Valley Syndicates - CA 0807-AU17-JEDD BB H 1 13:22:22.20 1537.396 00:02:59 Yes 312
270 27 De La O-Siino - CA 4055-AU17-COOK BC H 1 13:22:26.20 1537.128 00:03:03 Yes 311
690 28 Al Shulman - CA 0214-AU17-WSJ BC H 1 13:22:28.00 1537.007 00:03:05 Yes 310
29 Kim Wong - VT 10891-AU17-ARPU BB H 1 13:22:33.00 1536.673 00:03:10 Yes 309
6425 30 P N W Challenge - ID 7018-AU17-PNWC "1050-180" BBWF H 2 13:22:36.80 1536.418 00:03:14 Yes 308
1565 31 Loizzi - Sikora - CA 3702-AU17-FVC BCWF H 1 13:22:43.50 1535.970 00:03:20 Yes 307
32 Cloux Loft - CO 8123-AU17-FH BCWF H 2 13:22:46.50 1535.769 00:03:24 Yes 306
- 3-DROP 13:22:45.00 1534.769
33 Euro Dead - CA 6609-AU17-FSC “COLE’s” BB H 1 13:23:58.30 1530.983 00:04:35 Yes 291
7900 34 Bieche-Stevenson - CA 7434-AU17-BIE BC H 1 13:24:00.10 1530.863 00:04:37 Yes 290
- 4-DROP 13:23:59.00 1529.863
35 Aimhigh Loft - CA 0081-AU17-FMT Aim-0081 DC H 1 13:28:14.70 1514.132 00:08:52 Yes 275
500 36 John Partridge - CA 0524-AU17-PASO Voyager24 BC H 2 13:28:16.00 1514.047 00:08:53 Yes 274
1580 37 Avalos Loft - CA 0145-AU17-TULE BB H 1 13:28:35.00 1512.813 00:09:12 Yes 273
- 5-DROP 13:28:34.00 1511.813
38 H & H Flying Circus - CA 0712-AU17-ML BB H 1 13:30:08.50 1506.771 00:10:45 Yes 263
38 Flying W - CA 0530-AU17-AUB P/S bosua BB H 2 13:30:08.50 1506.771 00:10:45 Yes 263
590 40 Genesis Syndicate Loft - AZ 0356-AU17-GEN BB H 1 13:30:09.00 1506.739 00:10:46 Yes 261
41 Hayloft - CA 7199-AU17-GSF BC H 1 13:30:09.70 1506.694 00:10:47 Yes 260
42 Genesis Syndicate Loft - AZ 0355-AU17-GEN PIED H 2 13:30:16.90 1506.230 00:10:54 Yes 259
43 Blue - Face - CA 1188-AU17-FVC BB H 1 13:30:26.20 1505.632 00:11:03 Yes 258
44 Genesis Syndicate Loft - AZ 0365-AU17-GEN BB H 3 13:30:27.00 1505.581 00:11:04 Yes 257
3935 45 G & L Loft - OR 2344-AU17-WPC BB H 1 13:30:32.30 1505.240 00:11:09 Yes 256
46 Chala Loft - WA 0292-AU17-PSF BB H 1 13:30:34.50 1505.099 00:11:12 Yes 255
47 A P C Loft - TX 17169-AU17-APC BB H 2 13:30:37.10 1504.932 00:11:14 Yes 254
48 Racing Pigeon Mall - WA 0704-AU17-RPM BB H 1 13:30:37.60 1504.900 00:11:15 Yes 253
49 Sugaronni Loft - CA 7055-AU17-FOYS BB H 1 13:30:47.00 1504.297 00:11:24 Yes 252
50 Blue - Face - CA 1101-AU17-FVC BB H 2 13:31:01.10 1503.393 00:11:38 Yes 251
51 A P C Loft - TX 17193-AU17-APC BB H 3 13:31:02.00 1503.335 00:11:39 Yes 250
52 California Breeders Syndicate - CA 4550-AU17-AA BC H 1 13:31:39.90 1500.910 00:12:17 Yes 249
- 6-DROP 13:31:38.00 1499.910
53 Euro Dead - CA 6631-AU17-FSC “G.C CHALLENGE” DC H 2 13:32:42.30 1496.936 00:13:19 Yes 247
54 Jactions Loft - CA 0825-AU17-HANG BB H 2 13:32:48.00 1496.574 00:13:25 Yes 245
55 Huan Qiu Zhang - NC 1812-IF17-JNC BB H 2 13:32:54.10 1496.186 00:13:31 Yes 243
56 Skylinerpl.Com - UT 0901-AU17-UVI "Pouw Girl" BB H 1 13:32:59.20 1495.863 00:13:36 Yes 241
57 Barrett Family Loft - IL 0021-AU17-BARR BC H 1 13:33:00.70 1495.768 00:13:38 Yes 239
890 58 Bieche-Stevenson - CA 7153-AU17-BIE RC H 2 13:35:00.10 1488.232 00:15:37 Yes 237
59 Jactions Loft - CA 15967-AU17-AA BB H 3 13:35:19.10 1487.040 00:15:56 Yes 235
60 Barrett Family Loft - IL 0006-AU17-BARR BC H 2 13:35:20.10 1486.977 00:15:57 Yes 233
61 One D!rection Loft - CA 2229-AU17-JEDD Golden Wings BBWF H 1 13:35:24.60 1486.695 00:16:02 Yes 231
62 Skylinerpl.Com - UT 0207-AU17-UVI "New Bosua" BB H 2 13:35:25.70 1486.626 00:16:03 Yes 229
63 Barrett Family Loft - IL 0026-AU17-BARR DCSP H 3 13:35:31.10 1486.288 00:16:08 Yes 227
64 Louis Foy - CA 1048-AU17-WSJ GRIZ H 1 13:35:34.60 1486.069 00:16:12 Yes 225
65 De La O-Siino - CA 4190-AU17-COOK BB H 2 13:35:44.50 1485.449 00:16:22 Yes 223
66 H & H Flying Circus - CA 0705-AU17-ML BB H 2 13:35:46.10 1485.349 00:16:23 Yes 221
67 Joe Sanford - CA 4399-AU17-JEDD BCWF H 1 13:36:16.90 1483.425 00:16:54 Yes 219
68 Larios Loft - CA 7822-AU17-FSC BC H 1 13:36:28.10 1482.726 00:17:05 Yes 217
69 Barrett Family Loft - IL 0023-AU17-BARR MLY H 4 13:36:28.60 1482.695 00:17:06 Yes 215
70 Al Shulman - CA 0246-AU17-WSJ BC H 2 13:36:29.00 1482.670 00:17:06 Yes 213
71 Flying W - CA 0511-AU17-AUB P/S hof BB H 3 13:36:39.40 1482.022 00:17:16 Yes 211
1540 72 Skylinerpl.Com - UT 0088-AU17-UVI "De Belser's Girl" BB H 3 13:36:40.60 1481.948 00:17:18 Yes 209
73 Loizzi - Sikora - CA 3776-AU17-FVC BB H 2 13:36:42.70 1481.817 00:17:20 Yes 207
74 Skychargers - CA 0186-AU17-SD DC H 2 13:39:39.80 1470.873 00:20:17 Yes 205
75 Alpha & Omega Lofts - NV 17054-AU17-SNV BLK H 1 13:39:45.50 1470.524 00:20:22 Yes 203
76 Sierra Ranch - CA 0777-AU17-SR SLT H 3 13:39:47.10 1470.426 00:20:24 Yes 201
77 Lopez/ Saenz - CA 0856-AU17-TCH BC H 1 13:41:22.50 1464.601 00:21:59 Yes 199
78 Jack's Loft - CA 4391-AU17-FOYS King's Child GRZ H 1 13:41:27.70 1464.284 00:22:05 Yes 197
79 Sierra Ranch - CA 0718-AU17-SR BB H 4 13:41:35.40 1463.817 00:22:12 Yes 195
80 Plymouth Peak Pro Challenge - UT 7092-AU17-GS BB H 1 13:41:47.30 1463.094 00:22:24 Yes 193
81 Haack Loft - CA 2738-AU17-JEDD RB H 2 13:41:48.60 1463.015 00:22:26 Yes 191
82 Sierra Ranch - CA 0767-AU17-SR BB H 5 13:42:58.50 1458.785 00:23:36 Yes 189
83 Silicon Valley Syndicates - CA 1752-AU17-WSJ DC H 2 13:52:17.60 1425.815 00:32:55 Yes 187
84 Rob Wilson - CA 1303-AU17-AVC BB H 1 13:52:28.10 1425.210 00:33:05 Yes 185
85 G & L Loft - OR 7040-AU17-JC BC H 2 13:52:37.20 1424.686 00:33:14 Yes 183
86 Lito Maniego Loft - CA 13729-AU17-ARPU BB H 1 13:58:38.10 1404.216 00:39:15 Yes 181
87 B S Lofts - CA 0212-AU17-BSL Koni BC H 1 13:58:42.60 1403.965 00:39:20 Yes 179
88 Joe Sanford - CA 4398-AU17-JEDD SLT H 2 13:58:44.40 1403.864 00:39:21 Yes 177
89 Valhalla Loft - CA 0405-AU17-WSJ BC H 1 13:58:49.30 1403.590 00:39:26 Yes 175
90 Eastern Pearl Loft - VA 0251-AU17-EPL 🈚️量 251 BC H 1 13:58:53.40 1403.361 00:39:30 Yes 173
91 John Hedderson - CA 7101-AU17-FSC 4006x13070 RC C 1 13:58:54.70 1403.289 00:39:32 Yes 171
92 Richard Callahan - MO 1665-AU17-AA BB H 2 13:58:56.90 1403.166 00:39:34 Yes 169
93 Bolgar Loft - CA 7592-AU17-FSC BC H 1 13:58:58.20 1403.093 00:39:35 Yes 167
94 Tom O`Brien - CA 70816-AU17-SOC BB H 2 13:59:15.60 1402.123 00:39:53 Yes 165

There are 205 bird records

Note: These Race Results are unofficial and subject to change until verified by the Race Committee and declared final.